createdAt,value
2022-08-28T00:00:15.713Z,72.22
2022-08-28T00:02:42.435Z,72.50
2022-08-28T00:05:11.048Z,72.39
2022-08-28T00:07:38.430Z,72.69
2022-08-28T00:10:06.663Z,73.08
2022-08-28T00:12:34.764Z,72.96
2022-08-28T00:15:01.646Z,73.18
2022-08-28T00:17:28.363Z,73.19
2022-08-28T00:19:55.034Z,72.56
2022-08-28T00:22:21.674Z,72.58
2022-08-28T00:24:48.312Z,72.73
2022-08-28T00:27:33.429Z,72.75
2022-08-28T00:30:00.195Z,72.47
2022-08-28T00:32:27.043Z,73.04
2022-08-28T00:34:53.834Z,72.42
2022-08-28T00:37:20.470Z,72.88
2022-08-28T00:39:51.494Z,72.81
2022-08-28T00:42:18.334Z,72.58
2022-08-28T00:44:45.433Z,72.98
2022-08-28T00:47:12.690Z,72.80
2022-08-28T00:49:47.761Z,73.00
2022-08-28T00:52:16.055Z,72.74
2022-08-28T00:55:05.914Z,72.85
2022-08-28T00:57:39.157Z,72.50
2022-08-28T01:00:09.581Z,73.18
2022-08-28T01:02:36.518Z,72.68
2022-08-28T01:05:03.967Z,72.92
2022-08-28T01:07:30.737Z,72.97
2022-08-28T01:09:58.362Z,73.72
2022-08-28T01:12:29.632Z,73.69
2022-08-28T01:15:00.260Z,73.33
2022-08-28T01:17:31.256Z,74.11
2022-08-28T01:20:03.045Z,73.28
2022-08-28T01:22:54.075Z,73.52
2022-08-28T01:25:24.224Z,73.28
2022-08-28T01:27:51.631Z,73.33
2022-08-28T01:30:22.518Z,73.96
2022-08-28T01:32:53.731Z,73.95
2022-08-28T01:35:25.760Z,73.60
2022-08-28T01:37:53.333Z,73.29
2022-08-28T01:40:30.070Z,73.82
2022-08-28T01:43:16.130Z,73.59
2022-08-28T01:45:45.856Z,73.53
2022-08-28T01:48:14.595Z,73.75
2022-08-28T01:50:42.540Z,73.75
2022-08-28T01:53:12.382Z,73.02
2022-08-28T01:55:39.618Z,73.38
2022-08-28T01:58:07.387Z,73.77
2022-08-28T02:00:37.012Z,73.52
2022-08-28T02:03:03.901Z,73.22
2022-08-28T02:05:32.662Z,73.45
2022-08-28T02:08:01.582Z,73.30
2022-08-28T02:10:30.646Z,72.88
2022-08-28T02:12:59.241Z,72.66
2022-08-28T02:15:27.381Z,73.05
2022-08-28T02:17:54.235Z,72.88
2022-08-28T02:20:21.318Z,72.57
2022-08-28T02:22:48.054Z,72.47
2022-08-28T02:25:15.129Z,72.45
2022-08-28T02:27:41.796Z,73.42
2022-08-28T02:30:11.737Z,73.66
2022-08-28T02:32:38.979Z,73.37
2022-08-28T02:35:12.042Z,73.24
2022-08-28T02:37:39.713Z,74.19
2022-08-28T02:40:07.054Z,74.49
2022-08-28T02:42:34.011Z,73.47
2022-08-28T02:45:00.945Z,73.51
2022-08-28T02:47:27.610Z,74.75
2022-08-28T02:49:54.293Z,76.35
2022-08-28T02:52:22.422Z,75.64
2022-08-28T02:54:49.025Z,74.88
2022-08-28T02:57:16.122Z,75.43
2022-08-28T02:59:43.964Z,74.83
2022-08-28T03:02:10.595Z,74.59
2022-08-28T03:04:38.354Z,74.43
2022-08-28T03:07:07.480Z,74.22
2022-08-28T03:09:34.062Z,73.80
2022-08-28T03:12:00.759Z,73.92
2022-08-28T03:14:27.802Z,73.17
2022-08-28T03:16:54.533Z,72.84
2022-08-28T03:19:21.231Z,73.09
2022-08-28T03:21:47.838Z,73.46
2022-08-28T03:24:15.116Z,73.58
2022-08-28T03:26:42.455Z,72.83
2022-08-28T03:29:09.056Z,72.83
2022-08-28T03:31:36.201Z,72.69
2022-08-28T03:34:03.140Z,73.10
2022-08-28T03:36:29.856Z,73.56
2022-08-28T03:38:59.303Z,73.86
2022-08-28T03:41:29.144Z,73.46
2022-08-28T03:43:57.352Z,73.74
2022-08-28T03:46:25.118Z,73.87
2022-08-28T03:48:52.621Z,73.21
2022-08-28T03:51:29.680Z,73.74
2022-08-28T03:53:58.316Z,73.57
2022-08-28T03:56:26.501Z,73.25
2022-08-28T03:58:57.406Z,73.51
2022-08-28T04:01:24.381Z,73.21
2022-08-28T04:03:51.446Z,73.95
2022-08-28T04:06:19.724Z,73.63
2022-08-28T04:08:47.198Z,73.74
2022-08-28T04:11:13.801Z,73.25
2022-08-28T04:13:41.661Z,73.16
2022-08-28T04:16:11.420Z,73.59
2022-08-28T04:18:40.336Z,73.13
2022-08-28T04:21:12.923Z,73.83
2022-08-28T04:23:43.201Z,73.54
2022-08-28T04:26:13.004Z,73.20
2022-08-28T04:28:39.834Z,73.43
2022-08-28T04:31:08.224Z,73.38
2022-08-28T04:33:35.850Z,73.25
2022-08-28T04:36:05.336Z,73.86
2022-08-28T04:38:31.994Z,74.05
2022-08-28T04:40:58.926Z,73.86
2022-08-28T04:43:25.718Z,73.60
2022-08-28T04:45:52.266Z,73.78
2022-08-28T04:48:19.526Z,73.90
2022-08-28T04:50:48.946Z,73.92
2022-08-28T04:53:18.285Z,73.93
2022-08-28T04:55:54.600Z,73.64
2022-08-28T04:58:24.005Z,73.73
2022-08-28T05:00:52.536Z,73.59
2022-08-28T05:03:19.444Z,73.96
2022-08-28T05:05:53.030Z,73.60
2022-08-28T05:08:22.867Z,73.87
2022-08-28T05:10:50.847Z,73.18
2022-08-28T05:13:21.122Z,73.95
2022-08-28T05:15:50.294Z,73.78
2022-08-28T05:18:19.229Z,73.63
2022-08-28T05:20:47.977Z,73.11
2022-08-28T05:23:16.635Z,73.80
2022-08-28T05:25:46.649Z,74.14
2022-08-28T05:28:14.595Z,74.20
2022-08-28T05:30:44.787Z,74.42
2022-08-28T05:33:14.366Z,73.44
2022-08-28T05:35:43.837Z,74.33
2022-08-28T05:38:12.565Z,73.87
2022-08-28T05:40:45.256Z,73.46
2022-08-28T05:43:14.313Z,73.53
2022-08-28T05:45:41.201Z,73.64
2022-08-28T05:48:08.281Z,74.14
2022-08-28T05:50:39.099Z,75.05
2022-08-28T05:53:09.743Z,75.01
2022-08-28T05:55:40.452Z,75.03
2022-08-28T05:58:25.611Z,74.60
2022-08-28T06:00:52.200Z,74.61
2022-08-28T06:03:18.731Z,74.14
2022-08-28T06:05:45.393Z,74.19
2022-08-28T06:08:12.149Z,73.64
2022-08-28T06:10:46.883Z,73.33
2022-08-28T06:13:17.627Z,73.49
2022-08-28T06:15:46.650Z,73.50
2022-08-28T06:18:14.783Z,73.84
2022-08-28T06:20:45.334Z,73.74
2022-08-28T06:23:15.880Z,74.37
2022-08-28T06:25:51.586Z,73.89
2022-08-28T06:28:23.403Z,73.75
2022-08-28T06:31:18.376Z,73.46
2022-08-28T06:33:37.805Z,72.33
2022-08-28T06:36:05.768Z,72.92
2022-08-28T06:38:32.394Z,73.41
2022-08-28T06:40:59.998Z,73.62
2022-08-28T06:43:29.078Z,72.33
2022-08-28T06:45:57.689Z,72.52
2022-08-28T06:48:27.508Z,72.95
2022-08-28T06:50:55.971Z,73.78
2022-08-28T06:53:25.668Z,72.99
2022-08-28T06:56:08.468Z,72.80
2022-08-28T06:58:37.685Z,71.62
2022-08-28T07:01:14.378Z,72.30
2022-08-28T07:03:42.736Z,72.06
2022-08-28T07:06:13.703Z,72.28
2022-08-28T07:08:41.877Z,72.35
2022-08-28T07:11:25.991Z,72.70
2022-08-28T07:13:54.128Z,73.68
2022-08-28T07:16:25.691Z,72.71
2022-08-28T07:18:53.790Z,72.10
2022-08-28T07:21:21.037Z,72.87
2022-08-28T07:23:48.584Z,73.13
2022-08-28T07:26:20.374Z,72.76
2022-08-28T07:28:47.292Z,73.49
2022-08-28T07:31:18.777Z,73.49
2022-08-28T07:33:46.336Z,72.88
2022-08-28T07:36:29.149Z,72.63
2022-08-28T07:38:58.990Z,72.18
2022-08-28T07:41:28.806Z,72.20
2022-08-28T07:44:14.563Z,72.11
2022-08-28T07:46:41.530Z,71.44
2022-08-28T07:49:09.177Z,71.50
2022-08-28T07:51:35.935Z,71.20
2022-08-28T07:54:04.072Z,70.90
2022-08-28T07:56:32.038Z,70.72
2022-08-28T07:59:00.381Z,71.64
2022-08-28T08:01:30.551Z,71.44
2022-08-28T08:04:01.876Z,71.41
2022-08-28T08:06:34.136Z,70.74
2022-08-28T08:09:02.415Z,70.49
2022-08-28T08:11:31.059Z,71.22
2022-08-28T08:14:04.736Z,71.22
2022-08-28T08:16:39.067Z,70.02
2022-08-28T08:19:09.719Z,70.58
2022-08-28T08:21:37.282Z,69.93
2022-08-28T08:24:04.054Z,68.51
2022-08-28T08:26:30.925Z,68.76
2022-08-28T08:28:58.080Z,68.10
2022-08-28T08:31:28.404Z,68.70
2022-08-28T08:34:02.007Z,65.71
2022-08-28T08:36:30.099Z,65.53
2022-08-28T08:38:59.349Z,65.30
2022-08-28T08:41:43.628Z,64.56
2022-08-28T08:44:38.879Z,64.18
2022-08-28T08:47:58.110Z,65.11
2022-08-28T08:50:28.987Z,65.96
2022-08-28T08:53:14.564Z,64.45
2022-08-28T08:55:52.633Z,64.09
2022-08-28T08:58:39.654Z,63.77
2022-08-28T09:01:27.649Z,63.39
2022-08-28T09:04:22.778Z,62.23
2022-08-28T09:06:55.380Z,62.09
2022-08-28T09:09:42.232Z,63.32
2022-08-28T09:12:15.637Z,63.02
2022-08-28T09:15:10.167Z,59.86
2022-08-28T09:18:05.793Z,64.14
2022-08-28T09:20:33.401Z,60.46
2022-08-28T09:23:00.213Z,64.15
2022-08-28T09:25:45.153Z,63.82
2022-08-28T09:28:19.473Z,61.70
2022-08-28T09:30:54.732Z,58.32
2022-08-28T09:33:29.988Z,59.79
2022-08-28T09:35:56.535Z,61.78
2022-08-28T09:38:27.947Z,59.33
2022-08-28T09:41:27.164Z,60.62
2022-08-28T09:43:54.136Z,57.70
2022-08-28T09:46:24.551Z,60.33
2022-08-28T09:48:54.372Z,60.36
2022-08-28T09:51:20.975Z,59.44
2022-08-28T09:53:50.576Z,59.29
2022-08-28T09:56:29.098Z,59.38
2022-08-28T09:59:10.933Z,60.95
2022-08-28T10:01:55.217Z,61.02
2022-08-28T10:04:40.471Z,59.61
2022-08-28T10:07:25.900Z,58.90
2022-08-28T10:10:23.730Z,56.80
2022-08-28T10:13:15.450Z,57.96
2022-08-28T10:16:09.552Z,59.19
2022-08-28T10:18:56.523Z,59.79
2022-08-28T10:21:23.079Z,60.56
2022-08-28T10:24:28.524Z,57.96
2022-08-28T10:27:18.834Z,59.49
2022-08-28T10:30:08.808Z,57.32
2022-08-28T10:32:52.961Z,59.64
2022-08-28T10:35:39.958Z,60.78
2022-08-28T10:38:09.688Z,59.20
2022-08-28T10:40:49.334Z,58.36
2022-08-28T10:43:54.150Z,57.83
2022-08-28T10:46:27.438Z,60.06
2022-08-28T10:49:06.879Z,61.07
2022-08-28T10:51:44.432Z,60.88
2022-08-28T10:54:29.972Z,59.31
2022-08-28T10:57:05.503Z,58.23
2022-08-28T10:59:33.533Z,60.74
2022-08-28T11:02:13.447Z,56.92
2022-08-28T11:04:40.538Z,56.78
2022-08-28T11:07:11.210Z,54.54
2022-08-28T11:09:50.093Z,55.16
2022-08-28T11:12:16.741Z,56.96
2022-08-28T11:14:48.337Z,57.39
2022-08-28T11:17:25.498Z,54.20
2022-08-28T11:20:01.361Z,54.97
2022-08-28T11:22:37.344Z,55.25
2022-08-28T11:25:26.170Z,54.18
2022-08-28T11:28:11.609Z,54.52
2022-08-28T11:30:38.764Z,55.16
2022-08-28T11:33:08.890Z,56.19
2022-08-28T11:35:47.108Z,56.42
2022-08-28T11:38:54.074Z,56.42
2022-08-28T11:41:27.467Z,55.41
2022-08-28T11:44:09.422Z,54.03
2022-08-28T11:46:52.599Z,54.11
2022-08-28T11:49:31.640Z,54.78
2022-08-28T11:52:19.729Z,56.04
2022-08-28T11:54:52.423Z,55.07
2022-08-28T11:57:28.170Z,53.83
2022-08-28T12:00:21.531Z,54.33
2022-08-28T12:03:01.924Z,51.14
2022-08-28T12:05:31.457Z,53.98
2022-08-28T12:08:03.986Z,54.38
2022-08-28T12:10:31.678Z,53.68
2022-08-28T12:13:01.516Z,52.39
2022-08-28T12:15:29.691Z,53.02
2022-08-28T12:18:11.750Z,52.77
2022-08-28T12:20:51.074Z,52.54
2022-08-28T12:23:24.029Z,52.08
2022-08-28T12:26:00.529Z,53.00
2022-08-28T12:28:31.780Z,52.46
2022-08-28T12:31:53.549Z,51.47
2022-08-28T12:34:34.843Z,51.54
2022-08-28T12:37:03.954Z,53.01
2022-08-28T12:39:32.814Z,52.27
2022-08-28T12:42:03.482Z,52.28
2022-08-28T12:44:32.606Z,51.82
2022-08-28T12:46:59.801Z,51.66
2022-08-28T12:49:37.127Z,50.85
2022-08-28T12:52:25.682Z,51.18
2022-08-28T12:54:55.416Z,52.48
2022-08-28T12:57:24.868Z,52.07
2022-08-28T12:59:54.803Z,50.48
2022-08-28T13:02:28.831Z,50.50
2022-08-28T13:05:10.673Z,51.50
2022-08-28T13:07:49.998Z,50.72
2022-08-28T13:10:23.219Z,50.27
2022-08-28T13:12:59.795Z,50.83
2022-08-28T13:15:51.193Z,52.12
2022-08-28T13:18:41.597Z,50.41
2022-08-28T13:21:14.275Z,49.88
2022-08-28T13:23:42.345Z,50.89
2022-08-28T13:26:11.009Z,50.99
2022-08-28T13:28:43.079Z,50.10
2022-08-28T13:31:27.760Z,48.79
2022-08-28T13:34:09.283Z,47.87
2022-08-28T13:36:47.367Z,49.45
2022-08-28T13:39:18.191Z,49.69
2022-08-28T13:41:48.586Z,49.89
2022-08-28T13:44:37.030Z,49.42
2022-08-28T13:47:09.299Z,49.06
2022-08-28T13:49:36.480Z,47.88
2022-08-28T13:52:05.741Z,50.54
2022-08-28T13:54:35.213Z,49.14
2022-08-28T13:57:03.205Z,50.21
2022-08-28T13:59:30.924Z,48.65
2022-08-28T14:02:19.353Z,48.66
2022-08-28T14:04:46.230Z,48.04
2022-08-28T14:07:14.585Z,48.85
2022-08-28T14:09:42.323Z,47.81
2022-08-28T14:12:10.084Z,47.62
2022-08-28T14:14:39.847Z,47.96
2022-08-28T14:17:08.561Z,47.79
2022-08-28T14:19:35.909Z,48.75
2022-08-28T14:22:03.418Z,46.94
2022-08-28T14:24:30.243Z,48.80
2022-08-28T14:26:57.159Z,48.12
2022-08-28T14:29:23.985Z,48.77
2022-08-28T14:31:50.913Z,48.20
2022-08-28T14:34:22.697Z,46.61
2022-08-28T14:36:55.295Z,48.66
2022-08-28T14:39:26.892Z,47.18
2022-08-28T14:41:54.833Z,47.14
2022-08-28T14:44:23.559Z,48.07
2022-08-28T14:46:52.640Z,47.03
2022-08-28T14:49:25.217Z,49.68
2022-08-28T14:51:54.153Z,44.53
2022-08-28T14:54:23.321Z,44.26
2022-08-28T14:56:51.223Z,45.08
2022-08-28T14:59:24.230Z,44.22
2022-08-28T15:01:52.757Z,46.25
2022-08-28T15:04:22.850Z,47.46
2022-08-28T15:06:52.251Z,47.50
2022-08-28T15:09:19.501Z,47.18
2022-08-28T15:11:46.541Z,47.38
2022-08-28T15:14:13.605Z,48.54
2022-08-28T15:16:46.154Z,46.12
2022-08-28T15:19:16.097Z,46.58
2022-08-28T15:21:47.719Z,46.23
2022-08-28T15:24:15.959Z,46.00
2022-08-28T15:26:42.990Z,45.64
2022-08-28T15:29:12.019Z,45.74
2022-08-28T15:31:44.479Z,46.01
2022-08-28T15:34:15.549Z,47.00
2022-08-28T15:36:45.891Z,46.63
2022-08-28T15:39:40.607Z,47.17
2022-08-28T15:42:08.213Z,46.93
2022-08-28T15:44:34.829Z,46.06
2022-08-28T15:47:02.583Z,46.60
2022-08-28T15:49:32.304Z,47.70
2022-08-28T15:52:03.364Z,46.74
2022-08-28T15:54:31.893Z,46.45
2022-08-28T15:56:58.950Z,46.09
2022-08-28T15:59:47.947Z,46.59
2022-08-28T16:02:13.075Z,46.30
2022-08-28T16:04:40.542Z,45.93
2022-08-28T16:07:07.332Z,45.29
2022-08-28T16:09:34.131Z,46.36
2022-08-28T16:12:00.995Z,46.03
2022-08-28T16:14:28.023Z,46.45
2022-08-28T16:16:54.722Z,45.76
2022-08-28T16:19:21.432Z,45.78
2022-08-28T16:21:48.098Z,46.10
2022-08-28T16:24:15.207Z,45.60
2022-08-28T16:26:42.290Z,45.91
2022-08-28T16:29:08.903Z,46.16
2022-08-28T16:31:35.739Z,46.10
2022-08-28T16:34:03.135Z,46.24
2022-08-28T16:36:31.274Z,46.53
2022-08-28T16:39:00.498Z,45.95
2022-08-28T16:41:32.069Z,46.32
2022-08-28T16:43:58.945Z,47.00
2022-08-28T16:46:27.489Z,46.18
2022-08-28T16:48:54.519Z,46.81
2022-08-28T16:51:22.395Z,46.71
2022-08-28T16:53:49.028Z,47.04
2022-08-28T16:56:17.893Z,47.87
2022-08-28T16:58:45.396Z,47.60
2022-08-28T17:01:13.637Z,48.88
2022-08-28T17:03:41.941Z,48.66
2022-08-28T17:06:16.498Z,49.93
2022-08-28T17:08:44.158Z,49.53
2022-08-28T17:11:11.411Z,50.43
2022-08-28T17:13:38.431Z,50.54
2022-08-28T17:16:06.139Z,50.68
2022-08-28T17:18:33.850Z,50.76
2022-08-28T17:21:19.155Z,51.77
2022-08-28T17:23:46.562Z,52.34
2022-08-28T17:26:15.352Z,51.97
2022-08-28T17:28:43.430Z,52.53
2022-08-28T17:31:11.052Z,52.88
2022-08-28T17:33:39.637Z,53.05
2022-08-28T17:36:08.914Z,53.73
2022-08-28T17:38:48.893Z,54.66
2022-08-28T17:41:15.702Z,55.25
2022-08-28T17:43:42.299Z,55.38
2022-08-28T17:46:08.917Z,55.80
2022-08-28T17:48:36.998Z,56.00
2022-08-28T17:51:05.422Z,56.50
2022-08-28T17:53:32.389Z,55.94
2022-08-28T17:55:59.064Z,55.67
2022-08-28T17:58:25.707Z,56.45
2022-08-28T18:00:52.340Z,56.81
2022-08-28T18:03:18.994Z,56.82
2022-08-28T18:05:46.432Z,57.32
2022-08-28T18:08:13.231Z,57.07
2022-08-28T18:10:40.241Z,57.25
2022-08-28T18:13:07.059Z,57.38
2022-08-28T18:15:33.822Z,57.26
2022-08-28T18:18:04.944Z,57.93
2022-08-28T18:20:31.490Z,57.64
2022-08-28T18:22:58.333Z,56.77
2022-08-28T18:25:46.679Z,56.70
2022-08-28T18:28:22.350Z,56.62
2022-08-28T18:30:50.909Z,56.50
2022-08-28T18:33:22.447Z,56.98
2022-08-28T18:35:50.556Z,57.74
2022-08-28T18:38:19.005Z,57.58
2022-08-28T18:40:46.632Z,57.40
2022-08-28T18:43:13.933Z,57.35
2022-08-28T18:45:40.904Z,57.65
2022-08-28T18:48:08.023Z,57.37
2022-08-28T18:50:35.559Z,57.61
2022-08-28T18:53:02.239Z,57.67
2022-08-28T18:55:32.103Z,57.60
2022-08-28T18:58:00.633Z,57.28
2022-08-28T19:00:27.328Z,56.71
2022-08-28T19:02:54.517Z,56.80
2022-08-28T19:05:21.596Z,57.21
2022-08-28T19:07:48.491Z,57.28
2022-08-28T19:10:32.117Z,57.03
2022-08-28T19:13:01.207Z,57.17
2022-08-28T19:15:28.421Z,56.63
2022-08-28T19:17:55.536Z,56.31
2022-08-28T19:20:22.636Z,56.88
2022-08-28T19:22:49.685Z,57.14
2022-08-28T19:25:27.751Z,57.38
2022-08-28T19:28:01.554Z,57.07
2022-08-28T19:30:32.845Z,57.51
2022-08-28T19:33:01.368Z,57.24
2022-08-28T19:35:28.032Z,57.44
2022-08-28T19:37:55.140Z,57.41
2022-08-28T19:40:22.857Z,57.85
2022-08-28T19:42:50.001Z,58.05
2022-08-28T19:45:18.065Z,57.82
2022-08-28T19:47:45.370Z,57.31
2022-08-28T19:50:14.843Z,57.19
2022-08-28T19:52:43.996Z,57.40
2022-08-28T19:55:18.250Z,57.53
2022-08-28T19:57:46.686Z,57.66
2022-08-28T20:00:15.004Z,56.96
2022-08-28T20:02:41.935Z,57.53
2022-08-28T20:05:09.491Z,57.62
2022-08-28T20:07:36.228Z,57.98
2022-08-28T20:10:03.573Z,57.81
2022-08-28T20:12:30.217Z,57.78
2022-08-28T20:15:00.119Z,57.90
2022-08-28T20:17:29.857Z,58.22
2022-08-28T20:20:02.985Z,58.62
2022-08-28T20:22:31.851Z,59.27
2022-08-28T20:24:58.843Z,59.45
2022-08-28T20:27:25.805Z,60.12
2022-08-28T20:29:52.641Z,58.46
2022-08-28T20:32:19.612Z,57.91
2022-08-28T20:34:46.269Z,58.06
2022-08-28T20:37:13.176Z,57.66
2022-08-28T20:39:41.601Z,58.07
2022-08-28T20:42:09.731Z,58.45
2022-08-28T20:44:36.474Z,58.34
2022-08-28T20:47:03.722Z,58.17
2022-08-28T20:49:30.412Z,58.49
2022-08-28T20:51:57.577Z,59.07
2022-08-28T20:54:30.996Z,59.49
2022-08-28T20:57:02.470Z,59.13
2022-08-28T20:59:39.184Z,59.84
2022-08-28T21:02:19.089Z,59.93
2022-08-28T21:04:47.062Z,60.44
2022-08-28T21:07:15.750Z,60.10
2022-08-28T21:10:04.585Z,59.81
2022-08-28T21:12:29.973Z,59.99
2022-08-28T21:14:56.951Z,60.10
2022-08-28T21:17:29.608Z,60.16
2022-08-28T21:20:10.295Z,60.65
2022-08-28T21:22:37.326Z,60.53
2022-08-28T21:25:10.252Z,60.42
2022-08-28T21:27:37.942Z,60.26
2022-08-28T21:30:06.830Z,60.53
2022-08-28T21:32:34.461Z,60.11
2022-08-28T21:35:02.603Z,60.44
2022-08-28T21:37:29.842Z,60.97
2022-08-28T21:39:59.336Z,60.88
2022-08-28T21:42:26.893Z,61.25
2022-08-28T21:44:54.737Z,61.14
2022-08-28T21:47:23.573Z,61.05
2022-08-28T21:49:51.836Z,61.22
2022-08-28T21:52:20.340Z,61.18
2022-08-28T21:54:46.950Z,61.43
2022-08-28T21:57:15.118Z,61.23
2022-08-28T21:59:42.023Z,61.99
2022-08-28T22:02:09.236Z,62.10
2022-08-28T22:04:36.010Z,62.37
2022-08-28T22:07:02.605Z,62.82
2022-08-28T22:09:29.214Z,63.13
2022-08-28T22:11:55.876Z,63.67
2022-08-28T22:14:25.023Z,63.70
2022-08-28T22:16:52.039Z,62.85
2022-08-28T22:19:18.642Z,63.33
2022-08-28T22:22:03.616Z,63.28
2022-08-28T22:24:30.218Z,63.21
2022-08-28T22:26:57.658Z,63.39
2022-08-28T22:29:25.480Z,63.21
2022-08-28T22:31:52.679Z,63.53
2022-08-28T22:34:19.504Z,62.60
2022-08-28T22:36:46.044Z,63.20
2022-08-28T22:39:12.654Z,62.98
2022-08-28T22:41:39.300Z,63.53
2022-08-28T22:44:06.997Z,63.52
2022-08-28T22:46:33.537Z,63.89
2022-08-28T22:49:00.084Z,63.91
2022-08-28T22:51:26.650Z,64.05
2022-08-28T22:53:54.287Z,63.95
2022-08-28T22:56:21.165Z,64.13
2022-08-28T22:58:48.205Z,64.20
2022-08-28T23:01:19.653Z,64.20
2022-08-28T23:03:46.725Z,64.46
2022-08-28T23:06:13.950Z,64.03
2022-08-28T23:08:40.863Z,64.80
2022-08-28T23:11:07.870Z,64.62
2022-08-28T23:13:35.326Z,65.21
2022-08-28T23:16:02.722Z,65.86
2022-08-28T23:18:38.012Z,66.93
2022-08-28T23:21:13.220Z,67.33
2022-08-28T23:23:39.752Z,67.30
2022-08-28T23:26:12.195Z,67.11
2022-08-28T23:28:39.733Z,67.65
2022-08-28T23:31:06.618Z,67.44
2022-08-28T23:33:33.254Z,67.72
2022-08-28T23:35:59.995Z,68.07
2022-08-28T23:38:26.914Z,69.61
2022-08-28T23:40:54.002Z,69.45
2022-08-28T23:43:20.981Z,69.42
2022-08-28T23:45:47.589Z,70.18
2022-08-28T23:48:15.346Z,70.34
2022-08-28T23:50:42.420Z,70.29
2022-08-28T23:53:09.957Z,70.07
2022-08-28T23:55:37.038Z,70.32
2022-08-28T23:58:04.396Z,70.58
